首页
METAR-TAF:

METAR-TAF

机场 :

金奈国际机场

金奈, 印度

纬度: 13-00N, 经度: 080-11E, 海拔: 10米

当前天气观测

该预报发布于28分钟前的06:30 UTC
风速9节,风向
温度 38°C
湿度 48%
气压 1007 hPa
能見度: 8000
少量云层高于2000英尺

METAR: VOMM 190630Z 19009KT 8000 FEW020 38/25 Q1007 NOSIG

时间: 12:28 (06:58 UTC)

预报

该预报发布于1小时和58分钟前的05:00 UTC
预报有效从19日的 06点(UTC)到 20日的 12点(UTC)
风速10节,风向南转南东,有时为20节阵风
能見度: 6000
少量云层高于2000英尺
散云层高于10000英尺
成为
从 19日的 12点(UTC)到 19日的 13点(UTC)
风速10节,风向南转南东
成为
从 19日的 21点(UTC)到 19日的 22点(UTC)
风速5节,风向西南
成为
从 20日的 06点(UTC)到 20日的 07点(UTC)
风速10节,风向南转南东

TAF: VOMM 190500Z 1906/2012 16010G20KT 6000 FEW020 SCT100 BECMG 1912/1913 16010KT BECMG 1921/1922 22005KT BECMG 2006/2007 16010KT

超过4000个机场的气象观测和天气预报(METAR&TAF报告)。

可查询的气象台以黄色和红色小点在地图上表示。

将鼠标移到小点上方,可查看气象台名称。

然后点击查看天气观测和预报。

如需切换地图:点击带黑十字的绿色按钮放大地图;点击带横线的绿色按钮缩小地图;或者点击绿色箭头查看邻近地区的地图。


METAR-TAF: